SPZUP EPPI-EPOB
Flight info
| Callsign | SPZUP |
|---|---|
| Flight time | N/A |
| Altitude | 1700 |
| Route | 530741N0163856E/EPPIK DCT 525713N0164456E/MURANOWO DCT 523960N0164631E/EPOB |
| Aircraft | M18/L-GNSS/S |
Departure
| Time | 2026-05-07 17:58 |
|---|---|
| Airport | Piła Airfield (EPPI) |
Arrival
| Time | N/A |
|---|---|
| Airport | EPOB |
| Time | Latitude | Longitude | Altitude | Speed | Heading |
|---|---|---|---|---|---|
| 2026-05-07 17:48 | 53.16386 | 16.71401 | 274 ft | 0 kts | 217° |
| 2026-05-07 17:51 | 53.16385 | 16.71401 | 274 ft | 1 kts | 246° |
| 2026-05-07 17:51 | 53.16372 | 16.71388 | 274 ft | 0 kts | 71° |
| 2026-05-07 17:51 | 53.16373 | 16.71393 | 274 ft | 1 kts | 121° |
| 2026-05-07 17:52 | 53.16332 | 16.71459 | 274 ft | 18 kts | 134° |
| 2026-05-07 17:52 | 53.16251 | 16.71626 | 274 ft | 1 kts | 71° |
| 2026-05-07 17:52 | 53.16252 | 16.71629 | 274 ft | 1 kts | 65° |
| 2026-05-07 17:52 | 53.16270 | 16.71648 | 274 ft | 0 kts | 179° |
| 2026-05-07 17:53 | 53.16271 | 16.71648 | 274 ft | 0 kts | 161° |
| 2026-05-07 17:53 | 53.16264 | 16.71653 | 274 ft | 4 kts | 155° |
| 2026-05-07 17:53 | 53.16219 | 16.71691 | 274 ft | 6 kts | 156° |
| 2026-05-07 17:54 | 53.16187 | 16.71700 | 274 ft | 11 kts | 177° |
| 2026-05-07 17:54 | 53.16144 | 16.71621 | 274 ft | 22 kts | 263° |
| 2026-05-07 17:54 | 53.16158 | 16.71561 | 274 ft | 0 kts | 205° |
| 2026-05-07 17:54 | 53.16153 | 16.71556 | 274 ft | 1 kts | 231° |
| 2026-05-07 17:55 | 53.16144 | 16.71570 | 274 ft | 16 kts | 140° |
| 2026-05-07 17:55 | 53.16063 | 16.71607 | 273 ft | 0 kts | 188° |
| 2026-05-07 17:55 | 53.16039 | 16.71602 | 273 ft | 9 kts | 187° |
| 2026-05-07 17:55 | 53.16003 | 16.71583 | 273 ft | 10 kts | 249° |
| 2026-05-07 17:56 | 53.16053 | 16.71537 | 273 ft | 0 kts | 328° |
| 2026-05-07 17:56 | 53.16057 | 16.71527 | 273 ft | 0 kts | 247° |
| 2026-05-07 17:56 | 53.16046 | 16.71489 | 274 ft | 17 kts | 261° |
| 2026-05-07 17:56 | 53.16042 | 16.71060 | 279 ft | 56 kts | 257° |
| 2026-05-07 17:57 | 53.15976 | 16.70373 | 397 ft | 63 kts | 264° |
| 2026-05-07 17:57 | 53.16016 | 16.69692 | 520 ft | 68 kts | 301° |
| 2026-05-07 17:57 | 53.16206 | 16.68942 | 689 ft | 69 kts | 293° |
| 2026-05-07 17:57 | 53.16215 | 16.68146 | 838 ft | 76 kts | 245° |
| 2026-05-07 17:58 | 53.15797 | 16.67755 | 845 ft | 74 kts | 175° |
| 2026-05-07 17:58 | 53.15301 | 16.67978 | 664 ft | 70 kts | 160° |
| 2026-05-07 17:58 | 53.14950 | 16.68453 | 922 ft | 60 kts | 116° |
| 2026-05-07 17:58 | 53.14698 | 16.69116 | 1107 ft | 76 kts | 117° |
| 2026-05-07 17:59 | 53.14408 | 16.69910 | 1340 ft | 83 kts | 119° |